sensor_id;sensor_type;location;lat;lon;timestamp;P1;durP1;ratioP1;P2;durP2;ratioP2
51913;SDS011;37940;53.002;6.930;2022-10-19T00:00:44;12.65;;;2.70;;
51913;SDS011;37940;53.002;6.930;2022-10-19T00:03:10;9.15;;;2.45;;
51913;SDS011;37940;53.002;6.930;2022-10-19T00:05:36;12.75;;;2.60;;
51913;SDS011;37940;53.002;6.930;2022-10-19T00:08:02;33.03;;;3.42;;
51913;SDS011;37940;53.002;6.930;2022-10-19T00:10:28;10.85;;;2.50;;
51913;SDS011;37940;53.002;6.930;2022-10-19T00:12:53;14.48;;;2.88;;
51913;SDS011;37940;53.002;6.930;2022-10-19T00:15:19;9.02;;;2.72;;
51913;SDS011;37940;53.002;6.930;2022-10-19T00:17:45;11.43;;;3.08;;
51913;SDS011;37940;53.002;6.930;2022-10-19T00:20:11;8.95;;;2.40;;
51913;SDS011;37940;53.002;6.930;2022-10-19T00:22:37;15.98;;;3.20;;
51913;SDS011;37940;53.002;6.930;2022-10-19T00:25:03;13.25;;;2.90;;
51913;SDS011;37940;53.002;6.930;2022-10-19T00:27:29;9.45;;;3.00;;
51913;SDS011;37940;53.002;6.930;2022-10-19T00:29:55;9.25;;;2.92;;
51913;SDS011;37940;53.002;6.930;2022-10-19T00:32:20;11.23;;;2.47;;
51913;SDS011;37940;53.002;6.930;2022-10-19T00:34:46;18.85;;;3.05;;
51913;SDS011;37940;53.002;6.930;2022-10-19T00:37:12;11.02;;;2.58;;
51913;SDS011;37940;53.002;6.930;2022-10-19T00:39:38;29.38;;;3.47;;
51913;SDS011;37940;53.002;6.930;2022-10-19T00:42:04;13.35;;;3.05;;
51913;SDS011;37940;53.002;6.930;2022-10-19T00:46:56;10.35;;;3.03;;
51913;SDS011;37940;53.002;6.930;2022-10-19T00:49:29;14.15;;;2.42;;
51913;SDS011;37940;53.002;6.930;2022-10-19T00:52:05;8.20;;;3.05;;
51913;SDS011;37940;53.002;6.930;2022-10-19T00:54:37;12.52;;;2.72;;
51913;SDS011;37940;53.002;6.930;2022-10-19T00:57:04;12.07;;;3.20;;
51913;SDS011;37940;53.002;6.930;2022-10-19T00:59:31;15.63;;;2.88;;
51913;SDS011;37940;53.002;6.930;2022-10-19T01:01:58;12.80;;;2.75;;
51913;SDS011;37940;53.002;6.930;2022-10-19T01:04:27;18.17;;;2.90;;
51913;SDS011;37940;53.002;6.930;2022-10-19T01:06:54;15.93;;;2.80;;
51913;SDS011;37940;53.002;6.930;2022-10-19T01:09:21;13.90;;;3.03;;
51913;SDS011;37940;53.002;6.930;2022-10-19T01:11:50;16.58;;;2.78;;
51913;SDS011;37940;53.002;6.930;2022-10-19T01:34:56;14.13;;;2.75;;
51913;SDS011;37940;53.002;6.930;2022-10-19T01:37:22;8.43;;;2.40;;
51913;SDS011;37940;53.002;6.930;2022-10-19T01:39:58;15.73;;;2.90;;
51913;SDS011;37940;53.002;6.930;2022-10-19T01:42:48;8.50;;;2.38;;
51913;SDS011;37940;53.002;6.930;2022-10-19T01:45:21;10.75;;;2.63;;
51913;SDS011;37940;53.002;6.930;2022-10-19T01:48:21;11.50;;;2.35;;
51913;SDS011;37940;53.002;6.930;2022-10-19T01:51:03;14.30;;;2.50;;
51913;SDS011;37940;53.002;6.930;2022-10-19T01:53:32;14.65;;;3.13;;
51913;SDS011;37940;53.002;6.930;2022-10-19T01:56:03;8.90;;;2.40;;
51913;SDS011;37940;53.002;6.930;2022-10-19T01:58:31;8.50;;;2.33;;
51913;SDS011;37940;53.002;6.930;2022-10-19T02:01:01;8.50;;;2.60;;
51913;SDS011;37940;53.002;6.930;2022-10-19T02:03:30;8.35;;;2.10;;
51913;SDS011;37940;53.002;6.930;2022-10-19T02:05:57;9.00;;;2.28;;
51913;SDS011;37940;53.002;6.930;2022-10-19T02:08:28;6.72;;;2.15;;
51913;SDS011;37940;53.002;6.930;2022-10-19T02:10:58;10.82;;;2.22;;
51913;SDS011;37940;53.002;6.930;2022-10-19T02:13:25;15.27;;;2.70;;
51913;SDS011;37940;53.002;6.930;2022-10-19T02:15:53;7.82;;;2.50;;
51913;SDS011;37940;53.002;6.930;2022-10-19T02:18:27;7.53;;;2.70;;
51913;SDS011;37940;53.002;6.930;2022-10-19T02:20:57;10.85;;;2.35;;
51913;SDS011;37940;53.002;6.930;2022-10-19T02:23:26;13.02;;;2.53;;
51913;SDS011;37940;53.002;6.930;2022-10-19T02:25:52;11.65;;;3.00;;
51913;SDS011;37940;53.002;6.930;2022-10-19T02:28:19;11.60;;;2.17;;
51913;SDS011;37940;53.002;6.930;2022-10-19T02:30:46;15.60;;;2.42;;
51913;SDS011;37940;53.002;6.930;2022-10-19T02:33:12;11.70;;;2.63;;
51913;SDS011;37940;53.002;6.930;2022-10-19T02:35:38;10.10;;;2.28;;
51913;SDS011;37940;53.002;6.930;2022-10-19T02:38:04;11.55;;;2.53;;
51913;SDS011;37940;53.002;6.930;2022-10-19T02:40:35;12.32;;;3.25;;
51913;SDS011;37940;53.002;6.930;2022-10-19T02:43:06;8.85;;;2.63;;
51913;SDS011;37940;53.002;6.930;2022-10-19T02:45:37;11.60;;;2.65;;
51913;SDS011;37940;53.002;6.930;2022-10-19T02:48:10;10.18;;;2.53;;
51913;SDS011;37940;53.002;6.930;2022-10-19T02:50:45;10.93;;;2.50;;
51913;SDS011;37940;53.002;6.930;2022-10-19T02:53:14;8.07;;;2.35;;
51913;SDS011;37940;53.002;6.930;2022-10-19T02:55:40;11.32;;;2.50;;
51913;SDS011;37940;53.002;6.930;2022-10-19T02:58:06;10.05;;;3.08;;
51913;SDS011;37940;53.002;6.930;2022-10-19T03:00:32;11.68;;;2.83;;
51913;SDS011;37940;53.002;6.930;2022-10-19T03:02:58;13.05;;;2.70;;
51913;SDS011;37940;53.002;6.930;2022-10-19T03:05:23;12.40;;;2.70;;
51913;SDS011;37940;53.002;6.930;2022-10-19T03:07:49;9.63;;;2.63;;
51913;SDS011;37940;53.002;6.930;2022-10-19T03:10:15;8.68;;;2.47;;
51913;SDS011;37940;53.002;6.930;2022-10-19T03:12:41;8.63;;;2.63;;
51913;SDS011;37940;53.002;6.930;2022-10-19T03:15:06;9.95;;;2.67;;
51913;SDS011;37940;53.002;6.930;2022-10-19T03:17:33;10.82;;;2.50;;
51913;SDS011;37940;53.002;6.930;2022-10-19T03:19:59;10.95;;;3.15;;
51913;SDS011;37940;53.002;6.930;2022-10-19T03:22:25;6.47;;;2.20;;
51913;SDS011;37940;53.002;6.930;2022-10-19T03:24:50;9.05;;;2.42;;
51913;SDS011;37940;53.002;6.930;2022-10-19T03:27:16;11.77;;;2.60;;
51913;SDS011;37940;53.002;6.930;2022-10-19T03:29:42;21.95;;;3.10;;
51913;SDS011;37940;53.002;6.930;2022-10-19T03:32:07;9.05;;;2.28;;
51913;SDS011;37940;53.002;6.930;2022-10-19T03:34:33;8.32;;;2.28;;
51913;SDS011;37940;53.002;6.930;2022-10-19T03:36:59;10.52;;;2.30;;
51913;SDS011;37940;53.002;6.930;2022-10-19T03:39:24;11.55;;;2.35;;
51913;SDS011;37940;53.002;6.930;2022-10-19T03:41:50;8.43;;;2.25;;
51913;SDS011;37940;53.002;6.930;2022-10-19T03:44:16;6.80;;;2.25;;
51913;SDS011;37940;53.002;6.930;2022-10-19T03:46:42;10.35;;;2.95;;
51913;SDS011;37940;53.002;6.930;2022-10-19T03:49:07;11.07;;;2.72;;
51913;SDS011;37940;53.002;6.930;2022-10-19T03:51:34;6.70;;;2.70;;
51913;SDS011;37940;53.002;6.930;2022-10-19T03:54:01;16.92;;;2.97;;
51913;SDS011;37940;53.002;6.930;2022-10-19T03:56:30;7.30;;;2.95;;
51913;SDS011;37940;53.002;6.930;2022-10-19T03:58:57;16.30;;;2.88;;
51913;SDS011;37940;53.002;6.930;2022-10-19T04:01:25;12.00;;;2.85;;
51913;SDS011;37940;53.002;6.930;2022-10-19T04:03:57;11.13;;;3.15;;
51913;SDS011;37940;53.002;6.930;2022-10-19T04:06:28;14.88;;;3.40;;
51913;SDS011;37940;53.002;6.930;2022-10-19T04:08:59;14.27;;;3.72;;
51913;SDS011;37940;53.002;6.930;2022-10-19T04:11:26;14.38;;;3.10;;
51913;SDS011;37940;53.002;6.930;2022-10-19T04:13:53;8.73;;;3.17;;
51913;SDS011;37940;53.002;6.930;2022-10-19T04:16:21;8.63;;;3.00;;
51913;SDS011;37940;53.002;6.930;2022-10-19T04:18:48;11.38;;;3.58;;
51913;SDS011;37940;53.002;6.930;2022-10-19T04:21:28;10.80;;;2.90;;
51913;SDS011;37940;53.002;6.930;2022-10-19T04:23:59;10.48;;;3.40;;
51913;SDS011;37940;53.002;6.930;2022-10-19T04:26:31;15.25;;;3.28;;
51913;SDS011;37940;53.002;6.930;2022-10-19T04:28:57;18.23;;;3.40;;
51913;SDS011;37940;53.002;6.930;2022-10-19T04:31:24;8.70;;;3.15;;
51913;SDS011;37940;53.002;6.930;2022-10-19T04:33:51;9.70;;;3.05;;
51913;SDS011;37940;53.002;6.930;2022-10-19T04:36:16;9.73;;;3.00;;
51913;SDS011;37940;53.002;6.930;2022-10-19T04:38:42;10.52;;;3.00;;
51913;SDS011;37940;53.002;6.930;2022-10-19T04:41:09;11.18;;;2.78;;
51913;SDS011;37940;53.002;6.930;2022-10-19T04:43:37;10.73;;;2.95;;
51913;SDS011;37940;53.002;6.930;2022-10-19T04:46:07;17.42;;;3.00;;
51913;SDS011;37940;53.002;6.930;2022-10-19T04:48:34;12.85;;;2.85;;
51913;SDS011;37940;53.002;6.930;2022-10-19T04:51:01;19.13;;;3.65;;
51913;SDS011;37940;53.002;6.930;2022-10-19T04:53:28;20.77;;;3.20;;
51913;SDS011;37940;53.002;6.930;2022-10-19T04:55:54;16.80;;;2.92;;
51913;SDS011;37940;53.002;6.930;2022-10-19T04:58:20;10.75;;;2.75;;
51913;SDS011;37940;53.002;6.930;2022-10-19T05:00:46;13.68;;;3.38;;
51913;SDS011;37940;53.002;6.930;2022-10-19T05:03:12;12.45;;;2.97;;
51913;SDS011;37940;53.002;6.930;2022-10-19T05:05:37;16.38;;;2.70;;
51913;SDS011;37940;53.002;6.930;2022-10-19T05:08:03;13.30;;;2.78;;
51913;SDS011;37940;53.002;6.930;2022-10-19T05:10:29;10.55;;;2.55;;
51913;SDS011;37940;53.002;6.930;2022-10-19T05:12:55;10.45;;;2.45;;
51913;SDS011;37940;53.002;6.930;2022-10-19T05:15:20;13.48;;;2.70;;
51913;SDS011;37940;53.002;6.930;2022-10-19T05:17:46;12.38;;;2.65;;
51913;SDS011;37940;53.002;6.930;2022-10-19T05:20:12;11.25;;;2.15;;
51913;SDS011;37940;53.002;6.930;2022-10-19T05:22:38;10.93;;;2.05;;
51913;SDS011;37940;53.002;6.930;2022-10-19T05:25:04;10.43;;;1.70;;
51913;SDS011;37940;53.002;6.930;2022-10-19T05:27:31;11.60;;;2.28;;
51913;SDS011;37940;53.002;6.930;2022-10-19T05:29:57;8.25;;;1.95;;
51913;SDS011;37940;53.002;6.930;2022-10-19T05:32:23;14.23;;;2.50;;
51913;SDS011;37940;53.002;6.930;2022-10-19T05:34:49;13.07;;;2.30;;
51913;SDS011;37940;53.002;6.930;2022-10-19T05:37:15;14.95;;;2.33;;
51913;SDS011;37940;53.002;6.930;2022-10-19T05:39:41;14.23;;;2.60;;
51913;SDS011;37940;53.002;6.930;2022-10-19T05:42:07;14.90;;;2.67;;
51913;SDS011;37940;53.002;6.930;2022-10-19T05:44:32;10.85;;;2.13;;
51913;SDS011;37940;53.002;6.930;2022-10-19T05:46:58;11.55;;;2.40;;
51913;SDS011;37940;53.002;6.930;2022-10-19T05:49:24;9.68;;;2.05;;
51913;SDS011;37940;53.002;6.930;2022-10-19T05:51:50;16.35;;;2.63;;
51913;SDS011;37940;53.002;6.930;2022-10-19T05:54:16;12.90;;;2.05;;
51913;SDS011;37940;53.002;6.930;2022-10-19T05:56:42;11.75;;;2.17;;
51913;SDS011;37940;53.002;6.930;2022-10-19T05:59:09;13.52;;;3.08;;
51913;SDS011;37940;53.002;6.930;2022-10-19T06:01:40;14.40;;;1.92;;
51913;SDS011;37940;53.002;6.930;2022-10-19T06:04:05;12.65;;;2.22;;
51913;SDS011;37940;53.002;6.930;2022-10-19T06:06:31;10.70;;;2.22;;
51913;SDS011;37940;53.002;6.930;2022-10-19T06:08:58;10.68;;;2.35;;
51913;SDS011;37940;53.002;6.930;2022-10-19T06:11:28;16.80;;;2.30;;
51913;SDS011;37940;53.002;6.930;2022-10-19T06:16:24;14.48;;;2.40;;
51913;SDS011;37940;53.002;6.930;2022-10-19T06:18:51;11.75;;;2.17;;
51913;SDS011;37940;53.002;6.930;2022-10-19T06:21:18;13.23;;;2.00;;
51913;SDS011;37940;53.002;6.930;2022-10-19T06:23:50;10.35;;;2.10;;
51913;SDS011;37940;53.002;6.930;2022-10-19T06:26:17;11.65;;;2.25;;
51913;SDS011;37940;53.002;6.930;2022-10-19T06:28:43;11.40;;;2.17;;
51913;SDS011;37940;53.002;6.930;2022-10-19T06:31:10;11.90;;;2.72;;
51913;SDS011;37940;53.002;6.930;2022-10-19T06:33:37;10.95;;;2.30;;
51913;SDS011;37940;53.002;6.930;2022-10-19T06:36:08;14.73;;;2.10;;
51913;SDS011;37940;53.002;6.930;2022-10-19T06:38:35;12.27;;;2.53;;
51913;SDS011;37940;53.002;6.930;2022-10-19T06:41:01;15.40;;;2.78;;
51913;SDS011;37940;53.002;6.930;2022-10-19T06:43:28;12.30;;;2.25;;
51913;SDS011;37940;53.002;6.930;2022-10-19T06:45:53;14.25;;;2.95;;
51913;SDS011;37940;53.002;6.930;2022-10-19T06:48:19;14.20;;;2.75;;
51913;SDS011;37940;53.002;6.930;2022-10-19T06:50:45;9.38;;;2.40;;
51913;SDS011;37940;53.002;6.930;2022-10-19T06:53:11;19.70;;;3.38;;
51913;SDS011;37940;53.002;6.930;2022-10-19T06:55:36;12.13;;;2.55;;
51913;SDS011;37940;53.002;6.930;2022-10-19T06:58:02;10.30;;;2.10;;
51913;SDS011;37940;53.002;6.930;2022-10-19T07:00:29;9.63;;;1.75;;
51913;SDS011;37940;53.002;6.930;2022-10-19T07:02:57;10.18;;;2.10;;
51913;SDS011;37940;53.002;6.930;2022-10-19T07:05:23;11.07;;;2.40;;
51913;SDS011;37940;53.002;6.930;2022-10-19T07:07:48;23.13;;;2.70;;
51913;SDS011;37940;53.002;6.930;2022-10-19T07:10:14;11.15;;;2.03;;
51913;SDS011;37940;53.002;6.930;2022-10-19T07:12:40;10.48;;;2.15;;
51913;SDS011;37940;53.002;6.930;2022-10-19T07:15:05;8.65;;;1.83;;
51913;SDS011;37940;53.002;6.930;2022-10-19T07:17:31;8.32;;;1.70;;
51913;SDS011;37940;53.002;6.930;2022-10-19T07:19:57;10.20;;;2.05;;
51913;SDS011;37940;53.002;6.930;2022-10-19T07:22:23;10.27;;;2.47;;
51913;SDS011;37940;53.002;6.930;2022-10-19T07:24:54;13.25;;;2.42;;
51913;SDS011;37940;53.002;6.930;2022-10-19T07:27:21;10.57;;;2.55;;
51913;SDS011;37940;53.002;6.930;2022-10-19T07:29:47;9.80;;;2.10;;
51913;SDS011;37940;53.002;6.930;2022-10-19T07:32:12;12.93;;;2.60;;
51913;SDS011;37940;53.002;6.930;2022-10-19T07:34:38;14.10;;;1.92;;
51913;SDS011;37940;53.002;6.930;2022-10-19T07:37:04;9.55;;;1.90;;
51913;SDS011;37940;53.002;6.930;2022-10-19T07:39:29;10.38;;;2.60;;
51913;SDS011;37940;53.002;6.930;2022-10-19T07:41:55;10.15;;;2.20;;
51913;SDS011;37940;53.002;6.930;2022-10-19T07:44:21;12.18;;;2.13;;
51913;SDS011;37940;53.002;6.930;2022-10-19T07:46:46;11.68;;;2.60;;
51913;SDS011;37940;53.002;6.930;2022-10-19T07:49:13;10.45;;;2.58;;
51913;SDS011;37940;53.002;6.930;2022-10-19T07:51:44;11.93;;;2.05;;
51913;SDS011;37940;53.002;6.930;2022-10-19T07:54:10;11.23;;;2.45;;
51913;SDS011;37940;53.002;6.930;2022-10-19T07:56:36;11.40;;;2.17;;
51913;SDS011;37940;53.002;6.930;2022-10-19T07:59:02;10.15;;;1.92;;
51913;SDS011;37940;53.002;6.930;2022-10-19T08:01:30;9.32;;;2.33;;
51913;SDS011;37940;53.002;6.930;2022-10-19T08:03:59;8.93;;;2.28;;
51913;SDS011;37940;53.002;6.930;2022-10-19T08:06:25;10.35;;;1.80;;
51913;SDS011;37940;53.002;6.930;2022-10-19T08:08:52;8.90;;;2.03;;
51913;SDS011;37940;53.002;6.930;2022-10-19T08:11:22;9.38;;;2.08;;
51913;SDS011;37940;53.002;6.930;2022-10-19T08:13:53;8.98;;;1.98;;
51913;SDS011;37940;53.002;6.930;2022-10-19T08:16:26;10.02;;;1.73;;
51913;SDS011;37940;53.002;6.930;2022-10-19T08:18:58;8.40;;;1.60;;
51913;SDS011;37940;53.002;6.930;2022-10-19T08:21:25;12.50;;;2.25;;
51913;SDS011;37940;53.002;6.930;2022-10-19T08:23:52;7.82;;;1.80;;
51913;SDS011;37940;53.002;6.930;2022-10-19T08:26:18;28.73;;;2.97;;
51913;SDS011;37940;53.002;6.930;2022-10-19T08:28:44;11.93;;;2.25;;
51913;SDS011;37940;53.002;6.930;2022-10-19T08:31:14;8.85;;;1.83;;
51913;SDS011;37940;53.002;6.930;2022-10-19T08:33:42;8.07;;;1.98;;
51913;SDS011;37940;53.002;6.930;2022-10-19T08:36:09;11.35;;;2.05;;
51913;SDS011;37940;53.002;6.930;2022-10-19T08:38:36;8.35;;;2.03;;
51913;SDS011;37940;53.002;6.930;2022-10-19T08:49:14;9.43;;;1.75;;
51913;SDS011;37940;53.002;6.930;2022-10-19T08:51:48;8.73;;;1.70;;
51913;SDS011;37940;53.002;6.930;2022-10-19T08:54:19;10.15;;;1.98;;
51913;SDS011;37940;53.002;6.930;2022-10-19T08:57:07;7.68;;;1.70;;
51913;SDS011;37940;53.002;6.930;2022-10-19T09:02:53;9.18;;;2.10;;
51913;SDS011;37940;53.002;6.930;2022-10-19T09:08:06;11.48;;;2.25;;
51913;SDS011;37940;53.002;6.930;2022-10-19T09:10:34;6.75;;;1.63;;
51913;SDS011;37940;53.002;6.930;2022-10-19T09:13:06;9.63;;;2.10;;
51913;SDS011;37940;53.002;6.930;2022-10-19T09:15:43;9.48;;;2.33;;
51913;SDS011;37940;53.002;6.930;2022-10-19T09:18:13;10.80;;;2.08;;
51913;SDS011;37940;53.002;6.930;2022-10-19T09:20:44;10.10;;;2.35;;
51913;SDS011;37940;53.002;6.930;2022-10-19T09:26:03;7.53;;;1.90;;
51913;SDS011;37940;53.002;6.930;2022-10-19T09:33:51;7.85;;;2.35;;
51913;SDS011;37940;53.002;6.930;2022-10-19T09:36:21;9.85;;;2.00;;
51913;SDS011;37940;53.002;6.930;2022-10-19T09:38:48;16.60;;;2.10;;
51913;SDS011;37940;53.002;6.930;2022-10-19T09:41:19;7.70;;;1.80;;
51913;SDS011;37940;53.002;6.930;2022-10-19T09:43:49;6.72;;;1.98;;
51913;SDS011;37940;53.002;6.930;2022-10-19T09:46:32;9.32;;;1.92;;
51913;SDS011;37940;53.002;6.930;2022-10-19T09:49:16;7.32;;;1.90;;
51913;SDS011;37940;53.002;6.930;2022-10-19T09:51:49;7.07;;;2.00;;
51913;SDS011;37940;53.002;6.930;2022-10-19T09:54:30;10.93;;;2.00;;
51913;SDS011;37940;53.002;6.930;2022-10-19T09:56:58;6.15;;;1.80;;
51913;SDS011;37940;53.002;6.930;2022-10-19T09:59:27;8.27;;;1.90;;
51913;SDS011;37940;53.002;6.930;2022-10-19T10:02:16;9.20;;;1.77;;
51913;SDS011;37940;53.002;6.930;2022-10-19T10:04:53;6.10;;;1.42;;
51913;SDS011;37940;53.002;6.930;2022-10-19T10:07:32;9.10;;;1.95;;
51913;SDS011;37940;53.002;6.930;2022-10-19T10:10:07;8.93;;;1.70;;
51913;SDS011;37940;53.002;6.930;2022-10-19T10:12:35;7.63;;;1.92;;
51913;SDS011;37940;53.002;6.930;2022-10-19T10:15:02;6.28;;;1.60;;
51913;SDS011;37940;53.002;6.930;2022-10-19T10:17:30;9.20;;;1.70;;
51913;SDS011;37940;53.002;6.930;2022-10-19T10:22:29;8.52;;;1.92;;
51913;SDS011;37940;53.002;6.930;2022-10-19T10:24:57;7.25;;;1.80;;
51913;SDS011;37940;53.002;6.930;2022-10-19T10:27:36;11.10;;;2.30;;
51913;SDS011;37940;53.002;6.930;2022-10-19T10:30:07;7.25;;;1.92;;
51913;SDS011;37940;53.002;6.930;2022-10-19T10:32:42;10.27;;;2.10;;
51913;SDS011;37940;53.002;6.930;2022-10-19T10:35:17;8.57;;;2.10;;
51913;SDS011;37940;53.002;6.930;2022-10-19T10:38:13;10.50;;;2.10;;
51913;SDS011;37940;53.002;6.930;2022-10-19T10:40:48;10.70;;;1.98;;
51913;SDS011;37940;53.002;6.930;2022-10-19T10:43:35;8.00;;;1.90;;
51913;SDS011;37940;53.002;6.930;2022-10-19T10:46:13;8.02;;;2.13;;
51913;SDS011;37940;53.002;6.930;2022-10-19T10:48:44;7.90;;;2.20;;
51913;SDS011;37940;53.002;6.930;2022-10-19T10:51:26;6.07;;;1.80;;
51913;SDS011;37940;53.002;6.930;2022-10-19T10:54:18;9.35;;;2.00;;
51913;SDS011;37940;53.002;6.930;2022-10-19T10:56:59;9.07;;;2.03;;
51913;SDS011;37940;53.002;6.930;2022-10-19T10:59:53;10.43;;;1.95;;
51913;SDS011;37940;53.002;6.930;2022-10-19T11:02:47;9.73;;;1.90;;
51913;SDS011;37940;53.002;6.930;2022-10-19T11:05:44;7.75;;;1.95;;
51913;SDS011;37940;53.002;6.930;2022-10-19T11:16:12;10.40;;;2.50;;
51913;SDS011;37940;53.002;6.930;2022-10-19T11:18:45;7.90;;;1.67;;
51913;SDS011;37940;53.002;6.930;2022-10-19T11:21:15;5.60;;;1.67;;
51913;SDS011;37940;53.002;6.930;2022-10-19T11:31:51;7.32;;;1.63;;
51913;SDS011;37940;53.002;6.930;2022-10-19T11:42:36;4.35;;;1.60;;
51913;SDS011;37940;53.002;6.930;2022-10-19T11:45:21;7.93;;;1.92;;
51913;SDS011;37940;53.002;6.930;2022-10-19T12:01:40;4.60;;;1.63;;
51913;SDS011;37940;53.002;6.930;2022-10-19T12:12:45;4.78;;;1.40;;
51913;SDS011;37940;53.002;6.930;2022-10-19T12:17:40;5.80;;;1.25;;
51913;SDS011;37940;53.002;6.930;2022-10-19T12:20:17;5.45;;;1.70;;
51913;SDS011;37940;53.002;6.930;2022-10-19T12:22:56;3.45;;;1.30;;
51913;SDS011;37940;53.002;6.930;2022-10-19T12:25:23;4.63;;;1.50;;
51913;SDS011;37940;53.002;6.930;2022-10-19T12:27:50;9.00;;;1.75;;
51913;SDS011;37940;53.002;6.930;2022-10-19T12:30:18;5.03;;;1.45;;
51913;SDS011;37940;53.002;6.930;2022-10-19T12:33:08;7.50;;;1.70;;
51913;SDS011;37940;53.002;6.930;2022-10-19T12:38:32;10.93;;;1.50;;
51913;SDS011;37940;53.002;6.930;2022-10-19T12:46:30;8.82;;;1.70;;
51913;SDS011;37940;53.002;6.930;2022-10-19T12:51:53;8.30;;;2.08;;
51913;SDS011;37940;53.002;6.930;2022-10-19T12:54:21;8.27;;;2.47;;
51913;SDS011;37940;53.002;6.930;2022-10-19T12:56:50;7.75;;;2.20;;
51913;SDS011;37940;53.002;6.930;2022-10-19T12:59:31;6.90;;;2.63;;
51913;SDS011;37940;53.002;6.930;2022-10-19T13:02:01;10.10;;;2.83;;
51913;SDS011;37940;53.002;6.930;2022-10-19T13:04:31;10.48;;;2.53;;
51913;SDS011;37940;53.002;6.930;2022-10-19T13:07:00;7.72;;;2.80;;
51913;SDS011;37940;53.002;6.930;2022-10-19T13:09:39;11.83;;;2.77;;
51913;SDS011;37940;53.002;6.930;2022-10-19T13:22:40;6.70;;;2.33;;
51913;SDS011;37940;53.002;6.930;2022-10-19T13:27:43;11.38;;;2.70;;
51913;SDS011;37940;53.002;6.930;2022-10-19T13:38:28;8.48;;;2.97;;
51913;SDS011;37940;53.002;6.930;2022-10-19T13:51:00;8.75;;;3.50;;
51913;SDS011;37940;53.002;6.930;2022-10-19T13:56:28;8.43;;;5.05;;
51913;SDS011;37940;53.002;6.930;2022-10-19T13:59:12;7.53;;;4.60;;
51913;SDS011;37940;53.002;6.930;2022-10-19T14:05:06;9.05;;;4.68;;
51913;SDS011;37940;53.002;6.930;2022-10-19T14:10:39;8.48;;;4.38;;
51913;SDS011;37940;53.002;6.930;2022-10-19T14:13:09;7.38;;;4.22;;
51913;SDS011;37940;53.002;6.930;2022-10-19T14:15:38;8.02;;;4.47;;
51913;SDS011;37940;53.002;6.930;2022-10-19T14:18:18;9.07;;;4.20;;
51913;SDS011;37940;53.002;6.930;2022-10-19T14:20:59;7.30;;;3.95;;
51913;SDS011;37940;53.002;6.930;2022-10-19T14:23:32;8.50;;;3.83;;
51913;SDS011;37940;53.002;6.930;2022-10-19T14:26:15;9.48;;;4.25;;
51913;SDS011;37940;53.002;6.930;2022-10-19T14:28:48;6.45;;;3.90;;
51913;SDS011;37940;53.002;6.930;2022-10-19T14:31:18;8.43;;;3.95;;
51913;SDS011;37940;53.002;6.930;2022-10-19T14:33:47;8.68;;;4.18;;
51913;SDS011;37940;53.002;6.930;2022-10-19T14:36:19;6.80;;;4.25;;
51913;SDS011;37940;53.002;6.930;2022-10-19T14:38:52;8.20;;;5.00;;
51913;SDS011;37940;53.002;6.930;2022-10-19T14:41:25;7.18;;;4.05;;
51913;SDS011;37940;53.002;6.930;2022-10-19T14:43:55;6.78;;;4.07;;
51913;SDS011;37940;53.002;6.930;2022-10-19T14:46:26;9.27;;;3.97;;
51913;SDS011;37940;53.002;6.930;2022-10-19T14:49:02;6.40;;;3.75;;
51913;SDS011;37940;53.002;6.930;2022-10-19T14:51:39;8.48;;;3.35;;
51913;SDS011;37940;53.002;6.930;2022-10-19T14:59:18;8.75;;;3.47;;
51913;SDS011;37940;53.002;6.930;2022-10-19T15:01:50;7.82;;;2.90;;
51913;SDS011;37940;53.002;6.930;2022-10-19T15:04:23;8.98;;;2.83;;
51913;SDS011;37940;53.002;6.930;2022-10-19T15:06:51;5.97;;;2.65;;
51913;SDS011;37940;53.002;6.930;2022-10-19T15:11:46;6.05;;;2.72;;
51913;SDS011;37940;53.002;6.930;2022-10-19T15:14:15;7.15;;;2.58;;
51913;SDS011;37940;53.002;6.930;2022-10-19T15:16:59;6.70;;;2.45;;
51913;SDS011;37940;53.002;6.930;2022-10-19T15:19:30;4.68;;;2.40;;
51913;SDS011;37940;53.002;6.930;2022-10-19T15:24:55;10.32;;;2.88;;
51913;SDS011;37940;53.002;6.930;2022-10-19T15:32:47;7.10;;;2.33;;
51913;SDS011;37940;53.002;6.930;2022-10-19T15:35:36;9.10;;;2.83;;
51913;SDS011;37940;53.002;6.930;2022-10-19T15:38:11;6.18;;;2.60;;
51913;SDS011;37940;53.002;6.930;2022-10-19T15:40:57;7.10;;;2.83;;
51913;SDS011;37940;53.002;6.930;2022-10-19T15:45:59;6.70;;;2.58;;
51913;SDS011;37940;53.002;6.930;2022-10-19T15:51:29;8.73;;;2.80;;
51913;SDS011;37940;53.002;6.930;2022-10-19T15:53:51;7.50;;;2.53;;
51913;SDS011;37940;53.002;6.930;2022-10-19T15:56:18;8.73;;;2.90;;
51913;SDS011;37940;53.002;6.930;2022-10-19T15:58:48;13.35;;;2.45;;
51913;SDS011;37940;53.002;6.930;2022-10-19T16:01:16;8.93;;;2.35;;
51913;SDS011;37940;53.002;6.930;2022-10-19T16:03:43;6.40;;;2.28;;
51913;SDS011;37940;53.002;6.930;2022-10-19T16:06:10;8.35;;;2.63;;
51913;SDS011;37940;53.002;6.930;2022-10-19T16:08:36;9.32;;;2.67;;
51913;SDS011;37940;53.002;6.930;2022-10-19T16:11:02;5.60;;;2.55;;
51913;SDS011;37940;53.002;6.930;2022-10-19T16:13:29;6.93;;;2.22;;
51913;SDS011;37940;53.002;6.930;2022-10-19T16:15:58;6.97;;;2.13;;
51913;SDS011;37940;53.002;6.930;2022-10-19T16:18:29;7.82;;;2.72;;
51913;SDS011;37940;53.002;6.930;2022-10-19T16:20:55;7.68;;;2.40;;
51913;SDS011;37940;53.002;6.930;2022-10-19T16:23:21;7.28;;;2.35;;
51913;SDS011;37940;53.002;6.930;2022-10-19T16:25:47;6.72;;;2.00;;
51913;SDS011;37940;53.002;6.930;2022-10-19T16:28:12;8.80;;;1.95;;
51913;SDS011;37940;53.002;6.930;2022-10-19T16:30:38;5.07;;;1.85;;
51913;SDS011;37940;53.002;6.930;2022-10-19T16:33:04;9.30;;;1.90;;
51913;SDS011;37940;53.002;6.930;2022-10-19T16:35:30;5.57;;;1.80;;
51913;SDS011;37940;53.002;6.930;2022-10-19T16:37:55;7.63;;;2.03;;
51913;SDS011;37940;53.002;6.930;2022-10-19T16:40:23;9.20;;;1.83;;
51913;SDS011;37940;53.002;6.930;2022-10-19T16:42:49;5.15;;;1.60;;
51913;SDS011;37940;53.002;6.930;2022-10-19T16:45:15;7.70;;;1.90;;
51913;SDS011;37940;53.002;6.930;2022-10-19T16:47:41;6.63;;;2.05;;
51913;SDS011;37940;53.002;6.930;2022-10-19T16:50:07;5.57;;;1.80;;
51913;SDS011;37940;53.002;6.930;2022-10-19T16:52:35;6.05;;;2.00;;
51913;SDS011;37940;53.002;6.930;2022-10-19T16:55:00;6.15;;;1.73;;
51913;SDS011;37940;53.002;6.930;2022-10-19T16:57:26;9.85;;;2.08;;
51913;SDS011;37940;53.002;6.930;2022-10-19T16:59:52;5.90;;;1.80;;
51913;SDS011;37940;53.002;6.930;2022-10-19T17:02:19;9.50;;;1.75;;
51913;SDS011;37940;53.002;6.930;2022-10-19T17:04:45;7.05;;;2.08;;
51913;SDS011;37940;53.002;6.930;2022-10-19T17:07:12;7.15;;;1.45;;
51913;SDS011;37940;53.002;6.930;2022-10-19T17:09:38;5.20;;;1.70;;
51913;SDS011;37940;53.002;6.930;2022-10-19T17:12:04;9.77;;;2.65;;
51913;SDS011;37940;53.002;6.930;2022-10-19T17:14:30;4.25;;;1.58;;
51913;SDS011;37940;53.002;6.930;2022-10-19T17:16:56;5.40;;;1.50;;
51913;SDS011;37940;53.002;6.930;2022-10-19T17:19:22;5.95;;;1.90;;
51913;SDS011;37940;53.002;6.930;2022-10-19T17:21:48;9.57;;;2.15;;
51913;SDS011;37940;53.002;6.930;2022-10-19T17:24:16;11.85;;;2.47;;
51913;SDS011;37940;53.002;6.930;2022-10-19T17:26:43;6.30;;;1.70;;
51913;SDS011;37940;53.002;6.930;2022-10-19T17:29:12;10.88;;;2.45;;
51913;SDS011;37940;53.002;6.930;2022-10-19T17:31:38;5.97;;;1.90;;
51913;SDS011;37940;53.002;6.930;2022-10-19T17:34:04;9.10;;;2.45;;
51913;SDS011;37940;53.002;6.930;2022-10-19T17:36:33;4.43;;;1.70;;
51913;SDS011;37940;53.002;6.930;2022-10-19T17:39:07;9.10;;;1.92;;
51913;SDS011;37940;53.002;6.930;2022-10-19T17:41:35;9.05;;;2.42;;
51913;SDS011;37940;53.002;6.930;2022-10-19T17:44:02;7.45;;;1.92;;
51913;SDS011;37940;53.002;6.930;2022-10-19T17:46:30;8.80;;;1.88;;